Time;durP1;ratioP1;P1;durP2;ratioP2;P2;SDS_P1;SDS_P2;PMS_P1;PMS_P2;Temp;Humidity;BMP_temperature;BMP_pressure;BME280_temperature;BME280_humidity;BME280_pressure;Samples;Min_cycle;Max_cycle;Signal;HPM_P1;HPM_P2
2022/01/13 00:01:38;;;;;;;6.97;3.60;;;;;;;-10.31;100.00;101896.02;1684062;82;21050;-75
2022/01/13 00:03:59;;;;;;;9.57;3.43;;;;;;;-10.38;100.00;101894.28;1664910;83;21043;-73
2022/01/13 00:06:26;;;;;;;8.47;3.63;;;;;;;-10.35;100.00;101899.08;1700950;82;21540;-76
2022/01/13 00:08:54;;;;;;;8.73;3.80;;;;;;;-10.28;100.00;101905.27;1695244;83;21054;-75
2022/01/13 00:11:22;;;;;;;7.70;3.67;;;;;;;-10.31;100.00;101900.99;1707938;82;21019;-75
2022/01/13 00:14:22;;;;;;;7.30;3.67;;;;;;;-10.31;99.76;101898.50;1670133;84;21586;-74
2022/01/13 00:21:49;;;;;;;8.57;3.67;;;;;;;-10.22;99.53;101908.13;1718091;81;21069;-76
2022/01/13 00:24:13;;;;;;;7.97;3.47;;;;;;;-10.24;99.40;101902.20;1715993;81;21070;-75
2022/01/13 00:26:40;;;;;;;7.03;3.80;;;;;;;-10.32;100.00;101903.02;1717503;81;21046;-76
2022/01/13 00:29:10;;;;;;;7.83;3.80;;;;;;;-10.35;100.00;101895.73;1700261;83;21230;-76
2022/01/13 00:31:40;;;;;;;5.90;3.63;;;;;;;-10.40;100.00;101897.94;1703858;83;21046;-74
2022/01/13 00:34:07;;;;;;;7.77;3.80;;;;;;;-10.42;100.00;101899.47;1691080;83;21079;-75
2022/01/13 00:36:39;;;;;;;8.33;3.70;;;;;;;-10.52;100.00;101898.02;1707988;83;21054;-74
2022/01/13 00:39:08;;;;;;;7.00;3.87;;;;;;;-10.50;100.00;101896.88;1710054;82;21073;-76
2022/01/13 00:41:35;;;;;;;11.07;4.00;;;;;;;-10.48;100.00;101901.57;1684231;83;21567;-74
2022/01/13 00:44:06;;;;;;;10.73;4.33;;;;;;;-10.52;100.00;101895.53;1708987;83;21518;-74
2022/01/13 00:46:44;;;;;;;9.70;4.00;;;;;;;-10.55;100.00;101893.22;1713139;83;21062;-73
2022/01/13 00:49:13;;;;;;;8.33;3.90;;;;;;;-10.56;100.00;101902.68;1701111;82;21105;-75
2022/01/13 00:51:42;;;;;;;8.83;4.00;;;;;;;-10.63;100.00;101900.19;1726433;83;21039;-74
2022/01/13 00:54:09;;;;;;;9.83;3.97;;;;;;;-10.63;100.00;101905.56;1677170;84;21056;-74
2022/01/13 00:56:37;;;;;;;9.63;4.57;;;;;;;-10.65;100.00;101906.70;1726042;83;21062;-74
2022/01/13 00:59:09;;;;;;;10.07;4.63;;;;;;;-10.66;100.00;101902.86;1719570;83;21096;-74
2022/01/13 01:01:39;;;;;;;9.30;4.10;;;;;;;-10.73;100.00;101904.95;1704739;83;21042;-74
2022/01/13 01:04:07;;;;;;;9.23;4.33;;;;;;;-10.74;100.00;101908.22;1711084;83;21024;-74
2022/01/13 01:06:36;;;;;;;9.77;4.50;;;;;;;-10.84;100.00;101898.83;1705052;83;21057;-73
2022/01/13 01:09:06;;;;;;;8.73;4.00;;;;;;;-10.84;100.00;101900.07;1701528;83;21543;-75
2022/01/13 01:11:33;;;;;;;9.43;4.20;;;;;;;-10.87;100.00;101901.95;1712114;83;21079;-75
2022/01/13 01:14:02;;;;;;;11.37;4.43;;;;;;;-10.89;100.00;101902.23;1734339;81;21058;-75
2022/01/13 01:16:30;;;;;;;9.83;4.70;;;;;;;-10.90;100.00;101900.53;1751535;81;21031;-74
2022/01/13 01:19:04;;;;;;;8.43;4.20;;;;;;;-10.90;100.00;101912.97;1750963;81;21042;-74
2022/01/13 01:26:38;;;;;;;10.20;4.57;;;;;;;-11.02;100.00;101900.97;1752559;81;21046;-74
2022/01/13 01:29:08;;;;;;;13.47;5.17;;;;;;;-11.04;100.00;101902.50;1747784;81;21565;-74
2022/01/13 01:31:32;;;;;;;10.77;4.60;;;;;;;-11.07;100.00;101905.63;1750378;81;21003;-73
2022/01/13 01:36:45;;;;;;;8.80;4.07;;;;;;;-11.21;100.00;101903.84;1750988;81;21594;-74
2022/01/13 01:39:13;;;;;;;9.97;4.33;;;;;;;-11.26;100.00;101905.18;1751919;81;21069;-74
2022/01/13 01:41:49;;;;;;;10.17;4.57;;;;;;;-11.29;100.00;101904.60;1750034;81;21081;-74
2022/01/13 01:44:31;;;;;;;9.60;4.07;;;;;;;-11.34;100.00;101909.63;1745408;81;21039;-73
2022/01/13 01:46:58;;;;;;;11.97;4.53;;;;;;;-11.36;100.00;101910.77;1748048;81;20999;-73
2022/01/13 01:49:26;;;;;;;10.30;4.60;;;;;;;-11.44;100.00;101920.57;1752510;81;21078;-74
2022/01/13 01:52:01;;;;;;;9.27;4.17;;;;;;;-11.51;100.00;101923.03;1748450;81;21109;-73
2022/01/13 01:54:28;;;;;;;8.13;3.92;;;;;;;-11.53;100.00;101920.82;1749996;81;22000;-74
2022/01/13 01:56:57;;;;;;;10.00;4.63;;;;;;;-11.47;100.00;101925.70;1746337;81;21090;-74
2022/01/13 01:59:29;;;;;;;11.30;4.37;;;;;;;-11.43;100.00;101916.45;1752576;81;21510;-74
2022/01/13 02:01:55;;;;;;;11.37;4.67;;;;;;;-11.47;100.00;101914.52;1751639;81;21090;-74
2022/01/13 02:04:24;;;;;;;9.30;4.40;;;;;;;-11.47;100.00;101914.52;1750578;81;21042;-74
2022/01/13 02:06:52;;;;;;;9.63;4.40;;;;;;;-11.49;100.00;101919.02;1749085;81;21086;-73
2022/01/13 02:09:20;;;;;;;8.87;3.77;;;;;;;-11.57;100.00;101924.24;1752689;81;21035;-73
2022/01/13 02:11:54;;;;;;;9.20;4.13;;;;;;;-11.69;100.00;101925.12;1749805;81;21152;-73
2022/01/13 02:17:07;;;;;;;7.70;4.37;;;;;;;-11.80;100.00;101922.30;1747905;81;21518;-71
2022/01/13 02:19:36;;;;;;;5.33;3.67;;;;;;;-11.81;100.00;101925.91;1745593;82;21105;-74
2022/01/13 02:22:04;;;;;;;8.40;3.43;;;;;;;-11.79;100.00;101925.63;1708880;82;21031;-75
2022/01/13 02:24:32;;;;;;;7.80;3.57;;;;;;;-11.82;100.00;101935.34;1751345;81;21770;-74
2022/01/13 02:26:59;;;;;;;8.80;3.70;;;;;;;-11.93;100.00;101940.45;1717245;81;21007;-74
2022/01/13 02:29:26;;;;;;;6.80;3.73;;;;;;;-11.95;100.00;101937.39;1754779;81;21070;-74
2022/01/13 02:31:52;;;;;;;10.63;4.13;;;;;;;-11.98;100.00;101934.67;1748572;81;21684;-74
2022/01/13 02:34:20;;;;;;;7.03;3.73;;;;;;;-11.96;100.00;101944.33;1749841;81;21030;-73
2022/01/13 02:36:50;;;;;;;7.67;3.83;;;;;;;-12.04;100.00;101936.38;1750282;81;21622;-74
2022/01/13 02:39:17;;;;;;;6.90;3.10;;;;;;;-12.02;100.00;101938.94;1753776;81;21054;-72
2022/01/13 02:41:45;;;;;;;8.87;3.10;;;;;;;-12.08;100.00;101940.64;1750778;81;20987;-73
2022/01/13 02:44:17;;;;;;;7.27;2.93;;;;;;;-12.13;100.00;101937.81;1749086;81;21035;-74
2022/01/13 02:47:06;;;;;;;6.60;3.57;;;;;;;-12.16;100.00;101938.00;1749660;81;21085;-73
2022/01/13 02:49:15;;;;;;;8.70;3.53;;;;;;;-12.20;100.00;101928.22;1741824;81;21073;-73
2022/01/13 02:51:44;;;;;;;7.20;3.17;;;;;;;-12.23;100.00;101935.82;1748921;81;21027;-72
2022/01/13 02:54:12;;;;;;;6.17;3.17;;;;;;;-12.23;100.00;101935.82;1741197;81;21134;-73
2022/01/13 02:56:41;;;;;;;7.13;3.33;;;;;;;-12.20;100.00;101945.59;1730388;82;21022;-73
2022/01/13 02:59:09;;;;;;;6.30;3.43;;;;;;;-12.27;100.00;101953.73;1733213;81;21019;-74
2022/01/13 03:01:36;;;;;;;9.53;3.70;;;;;;;-12.33;100.00;101947.56;1716196;82;21483;-73
2022/01/13 03:04:07;;;;;;;5.43;3.10;;;;;;;-12.34;100.00;101957.02;1702159;83;21106;-73
2022/01/13 03:06:39;;;;;;;8.50;3.50;;;;;;;-12.39;100.00;101954.95;1708516;83;21035;-73
2022/01/13 03:09:12;;;;;;;7.00;2.97;;;;;;;-12.43;100.00;101966.65;1704932;83;21091;-72
2022/01/13 03:11:39;;;;;;;5.63;2.83;;;;;;;-12.48;100.00;101966.70;1695668;82;21565;-73
2022/01/13 03:14:10;;;;;;;5.37;2.97;;;;;;;-12.46;100.00;101964.81;1709133;83;21036;-72
2022/01/13 03:16:41;;;;;;;8.20;3.30;;;;;;;-12.51;100.00;101970.70;1718378;83;21474;-72
2022/01/13 03:19:09;;;;;;;4.87;2.53;;;;;;;-12.51;100.00;101968.56;1715685;82;21066;-72
2022/01/13 03:21:36;;;;;;;5.60;2.60;;;;;;;-12.52;100.00;101976.78;1708763;82;21071;-72
2022/01/13 03:24:08;;;;;;;6.43;3.30;;;;;;;-12.55;100.00;101970.34;1710733;83;21106;-73
2022/01/13 03:26:34;;;;;;;9.57;3.17;;;;;;;-12.53;100.00;101969.72;1712480;82;21031;-73
2022/01/13 03:29:15;;;;;;;6.77;3.33;;;;;;;-12.56;100.00;101973.20;1704149;82;21019;-72
2022/01/13 03:31:33;;;;;;;8.10;3.27;;;;;;;-12.60;100.00;101979.94;1707626;83;21066;-74
2022/01/13 03:33:59;;;;;;;7.50;3.80;;;;;;;-12.62;100.00;101980.20;1706869;83;21617;-73
2022/01/13 03:36:27;;;;;;;6.87;3.60;;;;;;;-12.66;100.00;101979.48;1695061;83;21173;-72
2022/01/13 03:38:54;;;;;;;8.40;3.40;;;;;;;-12.67;100.00;101980.25;1694064;83;21054;-73
2022/01/13 03:41:22;;;;;;;6.80;3.03;;;;;;;-12.67;100.00;101980.25;1709509;83;21626;-73
2022/01/13 03:43:52;;;;;;;7.77;3.07;;;;;;;-12.70;100.00;101980.02;1706923;83;21019;-72
2022/01/13 03:46:19;;;;;;;10.93;3.20;;;;;;;-12.74;100.00;101978.91;1700009;83;21038;-72
2022/01/13 03:48:46;;;;;;;7.60;3.37;;;;;;;-12.76;100.00;101991.58;1716388;83;21080;-72
2022/01/13 03:51:13;;;;;;;5.37;2.87;;;;;;;-12.80;100.00;101984.66;1707931;83;21008;-71
2022/01/13 03:54:02;;;;;;;6.93;2.80;;;;;;;-12.80;100.00;101997.06;1714827;83;21036;-71
2022/01/13 03:56:52;;;;;;;7.13;3.10;;;;;;;-12.90;100.00;101993.03;1702301;83;21573;-73
2022/01/13 03:59:34;;;;;;;7.77;3.07;;;;;;;-12.93;100.00;101980.42;1712406;83;21039;-72
2022/01/13 04:02:11;;;;;;;7.20;2.67;;;;;;;-12.94;100.00;101986.50;1702488;84;21646;-71
2022/01/13 04:04:50;;;;;;;9.00;3.30;;;;;;;-12.97;100.00;101988.77;1692949;84;21038;-72
2022/01/13 04:07:23;;;;;;;7.50;3.43;;;;;;;-12.94;100.00;101986.50;1665383;84;21008;-70
2022/01/13 04:09:58;;;;;;;7.65;3.00;;;;;;;-13.02;100.00;101991.27;1693874;83;21041;-73
2022/01/13 04:12:27;;;;;;;9.20;3.50;;;;;;;-13.03;100.00;101980.48;1689734;83;21089;-72
2022/01/13 04:14:57;;;;;;;6.10;2.93;;;;;;;-13.00;100.00;101976.13;1707680;83;21035;-71
2022/01/13 04:17:25;;;;;;;4.27;2.63;;;;;;;-12.98;100.00;101975.86;1701558;83;21035;-72
2022/01/13 04:19:52;;;;;;;7.27;2.50;;;;;;;-13.08;100.00;101980.89;1689164;83;21077;-72
2022/01/13 04:22:19;;;;;;;6.67;3.10;;;;;;;-13.06;100.00;101982.72;1706984;83;21067;-71
2022/01/13 04:24:49;;;;;;;7.60;3.40;;;;;;;-13.03;100.00;101987.06;1700935;83;21059;-72
2022/01/13 04:27:35;;;;;;;5.57;3.17;;;;;;;-12.99;100.00;101972.91;1695311;83;21010;-72
2022/01/13 04:32:44;;;;;;;6.87;2.77;;;;;;;-12.97;100.00;101988.77;1704644;83;21602;-71
2022/01/13 04:35:11;;;;;;;10.10;4.17;;;;;;;-12.99;100.00;101988.64;1703200;83;21047;-71
2022/01/13 04:37:39;;;;;;;14.77;5.33;;;;;;;-13.03;100.00;101982.97;1708799;83;21063;-71
2022/01/13 04:40:09;;;;;;;11.57;3.97;;;;;;;-13.01;100.00;101983.09;1679943;85;21086;-72
2022/01/13 04:42:37;;;;;;;8.20;2.80;;;;;;;-13.06;100.00;101993.88;1685060;84;21082;-71
2022/01/13 04:45:06;;;;;;;27.00;6.57;;;;;;;-13.05;100.00;101989.81;1684500;84;21086;-72
2022/01/13 04:47:32;;;;;;;16.70;4.90;;;;;;;-13.03;100.00;101991.64;1683220;84;21569;-72
2022/01/13 04:49:59;;;;;;;25.47;6.77;;;;;;;-13.00;100.00;101993.48;1654174;86;21615;-71
2022/01/13 04:52:26;;;;;;;19.23;5.50;;;;;;;-13.01;100.00;101998.81;1668866;86;21074;-72
2022/01/13 04:54:53;;;;;;;12.27;4.37;;;;;;;-13.02;100.00;101999.94;1663462;86;21079;-72
2022/01/13 04:57:20;;;;;;;14.73;4.97;;;;;;;-13.09;100.00;101994.05;1638503;85;22083;-72
2022/01/13 04:59:47;;;;;;;16.80;5.50;;;;;;;-13.10;100.00;101986.95;1639745;86;21088;-71
2022/01/13 05:02:16;;;;;;;13.10;4.73;;;;;;;-13.08;100.00;101987.08;1640567;86;21080;-71
2022/01/13 05:04:43;;;;;;;9.70;3.73;;;;;;;-13.13;100.00;101990.08;1652628;84;21111;-71
2022/01/13 05:07:09;;;;;;;8.20;3.60;;;;;;;-13.13;100.00;101995.42;1666020;86;21095;-71
2022/01/13 05:09:36;;;;;;;12.97;5.50;;;;;;;-13.09;100.00;101993.66;1665970;86;21566;-71
2022/01/13 05:12:04;;;;;;;13.80;4.73;;;;;;;-13.06;100.00;101993.88;1659497;86;21075;-71
2022/01/13 05:14:32;;;;;;;14.90;5.20;;;;;;;-13.07;100.00;101997.50;1654912;86;21110;-71
2022/01/13 05:17:09;;;;;;;12.30;5.10;;;;;;;-13.08;100.00;102009.00;1646536;86;21074;-70
2022/01/13 05:19:45;;;;;;;13.60;5.57;;;;;;;-13.07;100.00;102017.33;1648674;85;21115;-71
2022/01/13 05:22:22;;;;;;;11.90;5.33;;;;;;;-13.01;100.00;102009.12;1660618;85;21056;-71
2022/01/13 05:24:35;;;;;;;13.97;4.83;;;;;;;-12.94;100.00;102007.56;1683120;84;21088;-70
2022/01/13 05:27:02;;;;;;;13.70;4.93;;;;;;;-12.91;100.00;102012.39;1686180;84;21031;-71
2022/01/13 05:29:29;;;;;;;9.50;3.97;;;;;;;-12.88;100.00;102016.70;1686988;84;21091;-70
2022/01/13 05:31:56;;;;;;;9.43;4.33;;;;;;;-12.86;100.00;102016.83;1675718;85;21515;-70
2022/01/13 05:34:23;;;;;;;6.43;3.37;;;;;;;-12.83;100.00;102021.64;1674007;84;21077;-69
2022/01/13 05:36:50;;;;;;;8.23;3.47;;;;;;;-12.79;100.00;102017.75;1667362;85;21057;-70
2022/01/13 05:39:16;;;;;;;10.47;3.47;;;;;;;-12.75;100.00;102018.47;1664814;85;21044;-68
2022/01/13 05:41:43;;;;;;;10.57;3.67;;;;;;;-12.75;100.00;102012.27;1667116;85;21097;-70
2022/01/13 05:44:10;;;;;;;13.17;4.80;;;;;;;-12.64;100.00;102011.84;1675977;84;21574;-70
2022/01/13 05:46:37;;;;;;;13.43;5.37;;;;;;;-12.58;100.00;102009.81;1663607;85;21012;-69
2022/01/13 05:49:03;;;;;;;16.90;5.83;;;;;;;-12.51;100.00;102001.70;1652337;84;21039;-70
2022/01/13 05:51:32;;;;;;;13.77;5.40;;;;;;;-12.42;100.00;101998.16;1634815;85;21159;-71
2022/01/13 05:53:59;;;;;;;13.80;5.63;;;;;;;-12.35;100.00;102002.41;1638290;86;21067;-70
2022/01/13 05:56:26;;;;;;;9.83;4.87;;;;;;;-12.25;100.00;102004.34;1656423;86;21544;-70
2022/01/13 05:58:53;;;;;;;7.67;3.27;;;;;;;-12.15;100.00;102001.38;1617563;86;21052;-70
2022/01/13 06:01:20;;;;;;;6.47;2.93;;;;;;;-12.07;100.00;102008.52;1668170;85;21074;-71
2022/01/13 06:03:46;;;;;;;10.90;4.77;;;;;;;-12.10;100.00;102005.06;1651608;85;21020;-71
2022/01/13 06:06:13;;;;;;;14.87;5.83;;;;;;;-11.98;100.00;102001.36;1652420;84;21056;-71
2022/01/13 06:08:40;;;;;;;14.87;5.77;;;;;;;-11.97;100.00;101992.28;1716563;81;21019;-70
2022/01/13 06:11:06;;;;;;;20.27;6.50;;;;;;;-11.94;100.00;102003.30;1719137;81;21050;-71
2022/01/13 06:13:34;;;;;;;16.63;6.13;;;;;;;-11.99;100.00;102003.34;1721504;82;21543;-71
2022/01/13 06:16:01;;;;;;;22.20;7.17;;;;;;;-12.01;100.00;102002.36;1711472;82;21219;-71
2022/01/13 06:18:28;;;;;;;18.73;7.30;;;;;;;-11.85;100.00;102004.28;1722342;81;20996;-71
2022/01/13 06:20:55;;;;;;;12.67;5.87;;;;;;;-11.77;100.00;102009.80;1736502;81;21585;-70
2022/01/13 06:23:22;;;;;;;16.47;5.73;;;;;;;-11.67;100.00;102016.28;1708350;82;21571;-71
2022/01/13 06:25:49;;;;;;;18.40;6.03;;;;;;;-11.59;100.00;102004.88;1709504;81;20967;-70
2022/01/13 06:28:16;;;;;;;14.37;5.80;;;;;;;-11.62;100.00;101997.19;1717953;82;21030;-71
2022/01/13 06:30:43;;;;;;;23.20;8.47;;;;;;;-11.57;100.00;102000.02;1699204;83;21553;-71
2022/01/13 06:33:10;;;;;;;23.37;9.07;;;;;;;-11.56;100.00;102001.34;1727912;81;21044;-69
2022/01/13 06:35:37;;;;;;;25.70;9.60;;;;;;;-11.41;100.00;102004.39;1708482;81;21121;-70
2022/01/13 06:38:04;;;;;;;21.80;8.97;;;;;;;-11.38;100.00;101998.41;1712863;82;21011;-72
2022/01/13 06:40:32;;;;;;;18.67;8.20;;;;;;;-11.42;100.00;101997.72;1716820;81;21052;-70
2022/01/13 06:42:59;;;;;;;17.60;6.87;;;;;;;-11.40;100.00;101993.72;1726590;81;21070;-70
2022/01/13 06:45:26;;;;;;;21.93;7.33;;;;;;;-11.40;100.00;101983.77;1691358;82;21555;-69
2022/01/13 06:47:53;;;;;;;17.10;6.37;;;;;;;-11.35;100.00;101984.97;1720512;81;21026;-70
2022/01/13 06:50:19;;;;;;;18.37;6.70;;;;;;;-11.40;100.00;101998.30;1719015;81;21557;-71
2022/01/13 06:52:47;;;;;;;21.17;7.60;;;;;;;-11.41;100.00;101995.70;1700833;82;21071;-70
2022/01/13 06:55:15;;;;;;;19.03;7.83;;;;;;;-11.38;100.00;101999.27;1712881;82;21050;-71
2022/01/13 06:57:41;;;;;;;20.13;8.03;;;;;;;-11.33;100.00;101993.39;1719585;81;21023;-70
2022/01/13 07:00:10;;;;;;;19.10;7.70;;;;;;;-11.26;100.00;102002.98;1715798;81;21054;-71
2022/01/13 07:02:37;;;;;;;19.00;6.40;;;;;;;-11.31;100.00;101996.45;1718304;81;21590;-71
2022/01/13 07:05:05;;;;;;;22.23;7.43;;;;;;;-11.38;100.00;102003.37;1696205;81;21039;-70
2022/01/13 07:07:36;;;;;;;18.53;6.90;;;;;;;-11.45;100.00;101998.73;1712133;82;21547;-70
2022/01/13 07:10:05;;;;;;;16.47;7.43;;;;;;;-11.46;100.00;102008.20;1710979;83;21050;-71
2022/01/13 07:12:32;;;;;;;18.23;7.63;;;;;;;-11.55;100.00;102008.05;1714681;83;21560;-71
2022/01/13 07:14:59;;;;;;;16.23;7.23;;;;;;;-11.53;100.00;102019.34;1706843;83;21108;-71
2022/01/13 07:17:26;;;;;;;20.97;7.87;;;;;;;-11.49;100.00;102019.66;1718191;82;21114;-71
2022/01/13 07:19:54;;;;;;;24.90;8.33;;;;;;;-11.51;100.00;102011.62;1716215;81;21115;-70
2022/01/13 07:22:20;;;;;;;21.90;9.43;;;;;;;-11.49;100.00;102010.11;1707525;82;21011;-70
2022/01/13 07:24:48;;;;;;;24.10;8.80;;;;;;;-11.47;100.00;102017.64;1704814;81;21034;-70
2022/01/13 07:27:15;;;;;;;16.23;8.00;;;;;;;-11.39;100.00;102002.52;1723398;81;21508;-71
2022/01/13 07:29:48;;;;;;;27.60;9.43;;;;;;;-11.20;100.00;101990.11;1721152;81;21015;-71
2022/01/13 07:32:15;;;;;;;27.00;9.30;;;;;;;-11.04;100.00;101982.06;1728370;81;21040;-70
2022/01/13 07:34:42;;;;;;;26.63;9.47;;;;;;;-11.04;100.00;101974.61;1716464;81;20999;-71
2022/01/13 07:37:09;;;;;;;28.83;11.13;;;;;;;-10.93;100.00;101981.14;1726764;81;21636;-70
2022/01/13 07:39:36;;;;;;;36.70;10.87;;;;;;;-10.85;100.00;101980.41;1716254;81;22049;-70
2022/01/13 07:42:05;;;;;;;25.70;10.50;;;;;;;-10.81;100.00;101978.61;1724462;81;21070;-70
2022/01/13 07:44:32;;;;;;;24.70;9.63;;;;;;;-10.78;100.00;101985.90;1714364;81;21047;-70
2022/01/13 07:47:00;;;;;;;24.87;9.40;;;;;;;-10.73;100.00;101977.09;1706063;83;21085;-70
2022/01/13 07:49:29;;;;;;;37.00;12.03;;;;;;;-10.72;100.00;101970.13;1709786;82;21015;-71
2022/01/13 07:51:57;;;;;;;28.60;11.20;;;;;;;-10.79;100.00;101979.19;1686984;83;21442;-71
2022/01/13 07:54:27;;;;;;;29.67;11.03;;;;;;;-10.82;100.00;101985.22;1717579;82;22151;-71
2022/01/13 07:56:54;;;;;;;23.63;8.70;;;;;;;-10.74;100.00;101967.92;1709365;83;21053;-71
2022/01/13 07:59:27;;;;;;;28.27;11.53;;;;;;;-10.61;100.00;101963.36;1700697;83;21070;-70
2022/01/13 08:01:51;;;;;;;33.10;11.40;;;;;;;-10.47;100.00;101965.50;1696014;83;21566;-70
2022/01/13 08:04:18;;;;;;;31.67;10.90;;;;;;;-10.48;100.00;101961.30;1710824;83;21062;-71
2022/01/13 08:06:45;;;;;;;23.40;9.00;;;;;;;-10.46;100.00;101946.45;1703563;83;21067;-70
2022/01/13 08:09:12;;;;;;;18.60;7.47;;;;;;;-10.42;100.00;101949.25;1697408;83;21035;-70
2022/01/13 08:11:39;;;;;;;18.10;7.97;;;;;;;-10.39;100.00;101941.11;1673312;85;21082;-71
2022/01/13 08:14:05;;;;;;;15.13;7.20;;;;;;;-10.33;100.00;101956.05;1703097;83;21047;-70
2022/01/13 08:16:35;;;;;;;21.37;7.90;;;;;;;-10.26;100.00;101956.01;1694798;83;21551;-71
2022/01/13 08:21:47;;;;;;;17.07;6.43;;;;;;;-10.24;100.00;101947.41;1726926;82;21622;-70
2022/01/13 08:24:14;;;;;;;19.77;7.20;;;;;;;-10.13;100.00;101931.52;1733284;81;21007;-70
2022/01/13 08:26:40;;;;;;;14.20;6.40;;;;;;;-9.99;100.00;101936.13;1734560;82;21574;-71
2022/01/13 08:29:07;;;;;;;27.03;8.33;;;;;;;-9.91;100.00;101916.28;1712648;82;21090;-71
2022/01/13 08:31:34;;;;;;;22.53;9.20;;;;;;;-9.79;100.00;101917.39;1704538;83;21575;-71
2022/01/13 08:34:01;;;;;;;15.07;6.83;;;;;;;-9.68;100.00;101915.19;1719138;82;21086;-70
2022/01/13 08:36:28;;;;;;;22.30;7.83;;;;;;;-9.64;100.00;101904.64;1715576;82;21118;-70
2022/01/13 08:38:55;;;;;;;18.40;7.33;;;;;;;-9.57;100.00;101900.52;1708219;83;21091;-71
2022/01/13 08:41:22;;;;;;;17.17;7.40;;;;;;;-9.70;100.00;101896.39;1720114;83;21082;-70
2022/01/13 08:43:52;;;;;;;17.00;7.50;;;;;;;-9.69;100.00;101908.10;1722470;83;21055;-71
2022/01/13 08:46:18;;;;;;;19.17;7.07;;;;;;;-9.72;100.00;101915.77;1689391;83;21601;-70
2022/01/13 08:48:45;;;;;;;14.93;6.00;;;;;;;-9.65;100.00;101907.87;1700943;83;21022;-70
2022/01/13 08:51:12;;;;;;;12.73;5.50;;;;;;;-9.62;100.00;101920.94;1700946;83;21034;-70
2022/01/13 08:53:38;;;;;;;16.53;6.37;;;;;;;-9.66;100.00;101902.44;1703625;83;21109;-70
2022/01/13 08:56:05;;;;;;;16.83;7.57;;;;;;;-9.48;100.00;101906.03;1694513;83;21121;-70
2022/01/13 08:58:33;;;;;;;15.53;6.23;;;;;;;-9.29;100.00;101918.34;1694352;83;21077;-70
2022/01/13 09:01:00;;;;;;;17.40;6.13;;;;;;;-9.32;100.00;101913.19;1701549;83;21040;-70
2022/01/13 09:03:27;;;;;;;14.73;6.07;;;;;;;-9.40;100.00;101898.16;1715156;83;21072;-70
2022/01/13 09:05:56;;;;;;;17.00;6.70;;;;;;;-9.53;100.00;101894.94;1688052;84;21123;-70
2022/01/13 09:08:22;;;;;;;11.23;4.97;;;;;;;-9.43;100.00;101893.83;1690074;83;21043;-70
2022/01/13 09:10:49;;;;;;;17.70;6.70;;;;;;;-9.44;100.00;101882.55;1714450;83;21019;-70
2022/01/13 09:13:16;;;;;;;14.27;5.80;;;;;;;-9.36;100.00;101897.17;1714223;83;21114;-71
2022/01/13 09:15:57;;;;;;;17.17;6.47;;;;;;;-9.30;100.00;101895.44;1703165;83;21518;-69
2022/01/13 09:18:31;;;;;;;16.32;5.75;;;;;;;-9.25;100.00;101895.30;1719346;83;21050;-70
2022/01/13 09:20:48;;;;;;;17.13;6.70;;;;;;;-9.19;100.00;101886.08;1702509;83;21074;-71
2022/01/13 09:23:15;;;;;;;13.93;6.00;;;;;;;-9.16;100.00;101873.80;1683403;83;21114;-71
2022/01/13 09:25:42;;;;;;;12.67;5.37;;;;;;;-9.13;100.00;101876.06;1714681;83;21043;-72
2022/01/13 09:28:09;;;;;;;8.80;4.60;;;;;;;-9.21;100.00;101870.16;1709612;83;21066;-71
2022/01/13 09:30:37;;;;;;;12.97;5.37;;;;;;;-9.23;100.00;101863.83;1713821;83;21058;-71
2022/01/13 09:33:05;;;;;;;11.03;4.33;;;;;;;-9.25;100.00;101855.80;1722858;83;21527;-71
2022/01/13 09:35:32;;;;;;;11.30;4.53;;;;;;;-9.31;100.00;101847.17;1720951;83;21559;-71
2022/01/13 09:37:59;;;;;;;10.47;4.07;;;;;;;-9.27;100.00;101843.23;1722799;83;21072;-70
2022/01/13 09:40:28;;;;;;;10.77;4.80;;;;;;;-9.21;100.00;101829.02;1720118;83;21031;-70
2022/01/13 09:42:55;;;;;;;10.17;4.47;;;;;;;-9.02;100.00;101826.81;1701722;83;21089;-71
2022/01/13 09:45:23;;;;;;;11.23;4.50;;;;;;;-8.87;100.00;101828.05;1711220;83;21320;-70
2022/01/13 09:47:51;;;;;;;9.13;3.90;;;;;;;-8.83;100.00;101834.08;1711854;83;21070;-71
2022/01/13 09:50:21;;;;;;;8.97;3.67;;;;;;;-8.79;100.00;101814.75;1706969;83;21125;-70
2022/01/13 09:52:48;;;;;;;11.23;4.17;;;;;;;-8.89;100.00;101815.48;1711314;83;21634;-71
2022/01/13 09:55:16;;;;;;;10.80;4.13;;;;;;;-8.83;100.00;101814.97;1716917;83;21130;-70
2022/01/13 09:57:48;;;;;;;17.00;5.30;;;;;;;-8.76;100.00;101810.77;1711167;83;21119;-70
2022/01/13 10:00:19;;;;;;;13.63;4.97;;;;;;;-8.74;100.00;101809.25;1694279;83;21118;-71
2022/01/13 10:02:48;;;;;;;10.10;5.13;;;;;;;-8.62;100.00;101804.44;1687932;83;21082;-70
2022/01/13 10:05:20;;;;;;;14.10;5.40;;;;;;;-8.71;100.00;101802.31;1694588;83;21654;-70
2022/01/13 10:07:52;;;;;;;10.13;4.93;;;;;;;-8.67;100.00;101795.46;1713506;83;20993;-71
2022/01/13 10:10:24;;;;;;;15.57;5.43;;;;;;;-8.65;100.00;101805.14;1715852;83;21051;-70
2022/01/13 10:13:04;;;;;;;10.77;4.77;;;;;;;-8.59;100.00;101795.48;1684850;83;21086;-71
2022/01/13 10:18:41;;;;;;;10.93;5.50;;;;;;;-8.57;100.00;101791.44;1698469;83;21542;-70
2022/01/13 10:21:12;;;;;;;12.30;5.03;;;;;;;-8.49;100.00;101785.22;1679033;84;21092;-70
2022/01/13 10:23:59;;;;;;;12.57;5.60;;;;;;;-8.46;100.00;101785.37;1632882;86;21063;-70
2022/01/13 10:26:26;;;;;;;13.37;5.70;;;;;;;-8.37;100.00;101775.37;1647031;86;21049;-70
2022/01/13 10:28:53;;;;;;;13.23;6.30;;;;;;;-8.26;100.00;101810.53;1640560;86;21579;-71
2022/01/13 10:31:20;;;;;;;13.73;6.10;;;;;;;-8.33;100.00;101793.12;1622817;87;21575;-70
2022/01/13 10:33:47;;;;;;;12.13;5.60;;;;;;;-8.36;100.00;101790.84;1673332;83;21045;-70
2022/01/13 10:36:14;;;;;;;13.90;5.63;;;;;;;-8.40;100.00;101792.70;1717507;83;21098;-71
2022/01/13 10:38:56;;;;;;;15.27;6.00;;;;;;;-8.38;100.00;101789.89;1686142;83;21059;-71
2022/01/13 10:41:49;;;;;;;18.47;6.73;;;;;;;-8.37;100.00;101771.26;1702486;83;21070;-71
2022/01/13 10:44:18;;;;;;;17.43;7.00;;;;;;;-8.21;100.00;101772.93;1692450;83;21030;-71
2022/01/13 10:47:03;;;;;;;13.00;5.53;;;;;;;-8.12;100.00;101765.05;1698068;83;21035;-70
2022/01/13 10:49:37;;;;;;;14.93;6.37;;;;;;;-8.03;100.00;101769.25;1691816;83;21100;-71
2022/01/13 10:52:27;;;;;;;16.13;6.50;;;;;;;-8.07;100.00;101760.77;1698373;83;21100;-71
2022/01/13 10:55:20;;;;;;;14.63;6.23;;;;;;;-8.02;100.00;101758.89;1710560;83;21075;-70
2022/01/13 10:57:47;;;;;;;13.60;6.73;;;;;;;-7.98;100.00;101752.02;1683560;84;21106;-70
2022/01/13 11:00:21;;;;;;;14.17;6.30;;;;;;;-8.00;100.00;101747.34;1635313;86;21059;-70
2022/01/13 11:03:06;;;;;;;;;;;;;;;-8.03;100.00;101744.66;1660155;84;21054;-71
2022/01/13 11:05:42;;;;;;;13.97;6.50;;;;;;;-8.02;100.00;101722.66;1628513;87;20142;-71
2022/01/13 11:08:10;;;;;;;16.47;6.80;;;;;;;-8.00;100.00;101729.84;1679331;85;21143;-70
2022/01/13 11:10:41;;;;;;;14.77;6.60;;;;;;;-7.91;100.00;101720.30;1638772;86;21119;-71
2022/01/13 11:13:18;;;;;;;18.77;6.60;;;;;;;-7.80;100.00;101719.61;1707239;83;21055;-70
2022/01/13 11:15:50;;;;;;;13.90;6.97;;;;;;;-7.75;100.00;101718.19;1711744;83;21028;-71
2022/01/13 11:18:20;;;;;;;18.90;7.40;;;;;;;-7.65;100.00;101721.61;1699351;83;21481;-69
2022/01/13 11:20:48;;;;;;;17.83;6.73;;;;;;;-7.60;100.00;101719.32;1693007;83;21046;-70
2022/01/13 11:23:18;;;;;;;20.03;7.93;;;;;;;-7.60;100.00;101717.70;1692801;83;21117;-70
2022/01/13 11:25:54;;;;;;;18.50;8.13;;;;;;;-7.55;100.00;101722.92;1691478;83;21055;-71
2022/01/13 11:28:22;;;;;;;20.23;8.53;;;;;;;-7.53;100.00;101709.70;1707515;83;21057;-70
2022/01/13 11:30:50;;;;;;;22.43;8.97;;;;;;;-7.49;100.00;101721.57;1687915;84;21039;-71
2022/01/13 11:33:22;;;;;;;21.87;8.77;;;;;;;-7.53;100.00;101716.35;1702880;83;21049;-71
2022/01/13 11:35:57;;;;;;;20.90;8.53;;;;;;;-7.51;100.00;101714.39;1715999;83;21087;-71
2022/01/13 11:38:28;;;;;;;22.43;8.70;;;;;;;-7.50;100.00;101722.73;1714322;81;21530;-71
2022/01/13 11:41:05;;;;;;;19.03;8.73;;;;;;;-7.43;100.00;101706.41;1704478;83;21044;-71